| time (UTC) | temp C | wind direction | speed KPH | gust KPH | rain 1hr cm | rain 24hr cm | rain mn cm | humidity % | barometer mb |
| 20260508075023 | 13 | 293 | 6.4 | 17.7 | 0.00 | 0.48 | 0.38 | 92 | 1004.9 |
| 20260508074537 | 13 | 293 | 9.7 | 16.1 | 0.00 | 0.48 | 0.38 | 92 | 1004.8 |
| 20260508074212 | 13 | 288 | 6.4 | 20.9 | 0.00 | 0.48 | 0.38 | 92 | 1004.8 |
| 20260508073524 | 13 | 287 | 6.4 | 20.9 | 0.00 | 0.48 | 0.38 | 92 | 1004.6 |
| 20260508073044 | 13 | 287 | 6.4 | 19.3 | 0.03 | 0.48 | 0.38 | 92 | 1004.3 |
| 20260508072525 | 13 | 306 | 8.0 | 20.9 | 0.03 | 0.48 | 0.38 | 92 | 1004.2 |
| 20260508072027 | 13 | 289 | 11.3 | 20.9 | 0.03 | 0.48 | 0.38 | 92 | 1004.3 |
| 20260508071538 | 13 | 289 | 12.9 | 24.1 | 0.05 | 0.48 | 0.38 | 92 | 1004.2 |
| 20260508071024 | 13 | 291 | 11.3 | 27.4 | 0.05 | 0.48 | 0.38 | 92 | 1004.0 |
| 20260508070529 | 13 | 267 | 14.5 | 29.0 | 0.08 | 0.48 | 0.38 | 92 | 1004.2 |
| 20260508070047 | 13 | 256 | 17.7 | 33.8 | 0.08 | 0.48 | 0.38 | 93 | 1003.9 |
| 20260508065524 | 13 | 283 | 17.7 | 33.8 | 0.10 | 0.48 | 0.38 | 94 | 1004.3 |
| 20260508065033 | 13 | 233 | 17.7 | 33.8 | 0.15 | 0.48 | 0.38 | 94 | 1004.2 |
| 20260508064541 | 14 | 281 | 16.1 | 40.2 | 0.20 | 0.48 | 0.38 | 94 | 1004.2 |
| 20260508064027 | 14 | 264 | 16.1 | 40.2 | 0.20 | 0.48 | 0.38 | 94 | 1003.8 |
| 20260508063525 | 15 | 253 | 22.5 | 41.8 | 0.25 | 0.48 | 0.38 | 94 | 1004.8 |
| 20260508063057 | 15 | 244 | 24.1 | 41.8 | 0.23 | 0.46 | 0.36 | 94 | 1004.6 |
| 20260508062530 | 15 | 260 | 24.1 | 38.6 | 0.25 | 0.46 | 0.36 | 94 | 1004.6 |
| 20260508062026 | 15 | 234 | 22.5 | 38.6 | 0.25 | 0.46 | 0.36 | 94 | 1005.1 |
| 20260508061541 | 15 | 227 | 14.5 | 33.8 | 0.25 | 0.43 | 0.33 | 95 | 1004.6 |
| 20260508061026 | 16 | 264 | 14.5 | 33.8 | 0.25 | 0.43 | 0.33 | 95 | 1004.5 |
| 20260508060524 | 16 | 256 | 14.5 | 37.0 | 0.23 | 0.41 | 0.30 | 95 | 1004.4 |
| 20260508060042 | 16 | 256 | 17.7 | 38.6 | 0.25 | 0.41 | 0.30 | 94 | 1003.9 |
| 20260508055524 | 16 | 261 | 19.3 | 45.1 | 0.25 | 0.38 | 0.28 | 93 | 1003.9 |
| 20260508055026 | 17 | 272 | 20.9 | 45.1 | 0.23 | 0.33 | 0.23 | 91 | 1003.9 |
| 20260508054537 | 18 | 228 | 11.3 | 20.9 | 0.18 | 0.28 | 0.18 | 92 | 1004.3 |
| 20260508054023 | 18 | 258 | 9.7 | 17.7 | 0.18 | 0.28 | 0.18 | 91 | 1004.1 |
| 20260508053523 | 18 | 286 | 8.0 | 22.5 | 0.13 | 0.23 | 0.13 | 90 | 1003.8 |
| 20260508053036 | 19 | 297 | 11.3 | 22.5 | 0.13 | 0.23 | 0.13 | 90 | 1003.8 |
| 20260508052527 | 19 | 278 | 8.0 | 24.1 | 0.10 | 0.20 | 0.10 | 89 | 1003.6 |
| 20260508052025 | 19 | 304 | 11.3 | 24.1 | 0.10 | 0.20 | 0.10 | 88 | 1003.6 |
| 20260508051540 | 19 | 275 | 11.3 | 22.5 | 0.08 | 0.18 | 0.08 | 88 | 1003.5 |
| 20260508051024 | 19 | 322 | 9.7 | 19.3 | 0.08 | 0.18 | 0.08 | 87 | 1003.0 |
| 20260508050525 | 19 | 294 | 8.0 | 19.3 | 0.08 | 0.18 | 0.08 | 86 | 1002.7 |
| 20260508050039 | 20 | 279 | 8.0 | 19.3 | 0.03 | 0.13 | 0.03 | 85 | 1002.5 |
| 20260508045526 | 20 | 283 | 8.0 | 19.3 | 0.03 | 0.13 | 0.03 | 84 | 1002.3 |
| 20260508045027 | 20 | 296 | 4.8 | 16.1 | 0.00 | 0.10 | 0.00 | 83 | 1002.4 |
| 20260508044535 | 20 | 302 | 4.8 | 16.1 | 0.00 | 0.10 | 0.00 | 84 | 1002.5 |
| 20260508044027 | 20 | 276 | 1.6 | 16.1 | 0.00 | 0.10 | 0.00 | 84 | 1002.6 |
| 20260508043523 | 20 | 322 | 3.2 | 16.1 | 0.00 | 0.10 | 0.00 | 84 | 1002.5 |
| 20260508043053 | 20 | 320 | 4.8 | 14.5 | 0.00 | 0.10 | 0.00 | 84 | 1002.4 |
| 20260508042525 | 20 | 356 | 4.8 | 17.7 | 0.00 | 0.10 | 0.00 | 84 | 1002.2 |
| 20260508042026 | 20 | 3 | 4.8 | 19.3 | 0.00 | 0.10 | 0.00 | 84 | 1002.1 |
| 20260508041545 | 20 | 319 | 4.8 | 19.3 | 0.00 | 0.10 | 0.00 | 83 | 1002.2 |
| 20260508041027 | 20 | 348 | 4.8 | 19.3 | 0.00 | 0.10 | 0.00 | 83 | 1002.1 |
| 20260508040609 | 20 | 307 | 4.8 | 16.1 | 0.00 | 0.10 | 0.00 | 82 | 1002.1 |
| 20260508040038 | 20 | 316 | 3.2 | 20.9 | 0.00 | 0.10 | 0.00 | 82 | 1002.3 |
| 20260508035524 | 20 | 322 | 6.4 | 25.7 | 0.00 | 0.10 | 0.00 | 82 | 1002.4 |
| 20260508035023 | 20 | 317 | 8.0 | 25.7 | 0.05 | 0.10 | 0.00 | 84 | 1002.6 |
| 20260508034536 | 19 | 320 | 9.7 | 22.5 | 0.10 | 0.10 | 0.00 | 85 | 1002.4 |
| 20260508034027 | 19 | 303 | 9.7 | 27.4 | 0.10 | 0.10 | 0.00 | 87 | 1002.8 |
| 20260508033523 | 19 | 316 | 11.3 | 27.4 | 0.10 | 0.10 | 0.00 | 87 | 1003.1 |
| 20260508033036 | 19 | 300 | 9.7 | 25.7 | 0.10 | 0.10 | 0.00 | 87 | 1003.1 |
| 20260508032528 | 19 | 308 | 8.0 | 20.9 | 0.10 | 0.10 | 0.00 | 87 | 1002.9 |
| 20260508032023 | 19 | 285 | 8.0 | 20.9 | 0.10 | 0.10 | 0.00 | 87 | 1003.0 |
| 20260508031536 | 19 | 291 | 9.7 | 20.9 | 0.10 | 0.10 | 0.00 | 86 | 1003.0 |
| 20260508031024 | 19 | 291 | 9.7 | 25.7 | 0.10 | 0.10 | 0.00 | 85 | 1003.2 |
| 20260508030528 | 19 | 278 | 11.3 | 41.8 | 0.10 | 0.10 | 0.00 | 85 | 1003.2 |
| 20260508030042 | 19 | 312 | 12.9 | 43.5 | 0.10 | 0.10 | 0.00 | 85 | 1003.3 |
| 20260508025526 | 20 | 281 | 20.9 | 43.5 | 0.10 | 0.10 | 0.10 | 82 | 1003.4 |
| 20260508025029 | 21 | 272 | 19.3 | 38.6 | 0.05 | 0.05 | 0.05 | 76 | 1003.5 |
| 20260508024536 | 22 | 274 | 22.5 | 38.6 | 0.00 | 0.00 | 0.00 | 70 | 1003.7 |
| 20260508024027 | 22 | 279 | 17.7 | 46.7 | 0.00 | 0.00 | 0.00 | 69 | 1003.3 |
| 20260508023525 | 23 | 239 | 27.4 | 46.7 | 0.00 | 0.00 | 0.00 | 66 | 1003.4 |
| 20260508023043 | 24 | 259 | 20.9 | 66.0 | 0.00 | 0.00 | 0.00 | 63 | 1003.4 |
| 20260508022524 | 26 | 302 | 33.8 | 66.0 | 0.00 | 0.00 | 0.00 | 57 | 1003.6 |
| 20260508022023 | 27 | 272 | 12.9 | 32.2 | 0.00 | 0.00 | 0.00 | 59 | 1002.5 |
| 20260508021546 | 27 | 313 | 12.9 | 32.2 | 0.00 | 0.00 | 0.00 | 59 | 1001.3 |
| 20260508021024 | 27 | 353 | 16.1 | 30.6 | 0.00 | 0.00 | 0.00 | 58 | 1001.2 |
| 20260508020526 | 27 | 328 | 12.9 | 29.0 | 0.00 | 0.00 | 0.00 | 58 | 1001.3 |
| 20260508020045 | 27 | 316 | 14.5 | 33.8 | 0.00 | 0.00 | 0.00 | 58 | 1001.3 |
| 20260508015525 | 27 | 1 | 14.5 | 33.8 | 0.00 | 0.00 | 0.00 | 58 | 1000.9 |
| 20260508015024 | 27 | 353 | 12.9 | 27.4 | 0.00 | 0.00 | 0.00 | 58 | 1000.9 |
| 20260508014544 | 26 | 349 | 14.5 | 30.6 | 0.00 | 0.00 | 0.00 | 59 | 1001.1 |
| 20260508014210 | 27 | 18 | 12.9 | 30.6 | 0.00 | 0.00 | 0.00 | 58 | 1001.0 |
| 20260508013524 | 26 | 348 | 11.3 | 24.1 | 0.00 | 0.00 | 0.00 | 59 | 1001.3 |
| 20260508013046 | 26 | 345 | 8.0 | 20.9 | 0.00 | 0.00 | 0.00 | 59 | 1001.3 |
| 20260508012529 | 26 | 1 | 11.3 | 22.5 | 0.00 | 0.00 | 0.00 | 59 | 1001.2 |
| 20260508012026 | 26 | 16 | 6.4 | 25.7 | 0.00 | 0.00 | 0.00 | 59 | 1001.3 |
| 20260508011541 | 26 | 352 | 12.9 | 25.7 | 0.00 | 0.00 | 0.00 | 59 | 1001.3 |
| 20260508011026 | 26 | 347 | 6.4 | 17.7 | 0.00 | 0.00 | 0.00 | 60 | 1001.5 |
| 20260508010526 | 26 | 356 | 8.0 | 17.7 | 0.00 | 0.00 | 0.00 | 60 | 1001.4 |
| 20260508010040 | 26 | 296 | 6.4 | 19.3 | 0.00 | 0.00 | 0.00 | 60 | 1001.3 |
| 20260508005524 | 26 | 4 | 9.7 | 19.3 | 0.00 | 0.00 | 0.00 | 59 | 1001.3 |
| 20260508005027 | 26 | 25 | 11.3 | 19.3 | 0.00 | 0.00 | 0.00 | 59 | 1001.2 |
| 20260508004536 | 26 | 359 | 9.7 | 17.7 | 0.00 | 0.00 | 0.00 | 60 | 1001.3 |
| 20260508004027 | 26 | 34 | 8.0 | 17.7 | 0.00 | 0.00 | 0.00 | 60 | 1001.3 |
| 20260508003530 | 26 | 324 | 8.0 | 19.3 | 0.00 | 0.00 | 0.00 | 60 | 1001.4 |
| 20260508003042 | 26 | 358 | 8.0 | 19.3 | 0.00 | 0.00 | 0.00 | 60 | 1001.4 |
| 20260508002523 | 26 | 12 | 6.4 | 17.7 | 0.00 | 0.00 | 0.00 | 60 | 1001.3 |
| 20260508002026 | 26 | 6 | 9.7 | 17.7 | 0.00 | 0.00 | 0.00 | 59 | 1001.5 |
| 20260508001558 | 26 | 14 | 9.7 | 17.7 | 0.00 | 0.00 | 0.00 | 60 | 1001.3 |
| 20260508001023 | 26 | 18 | 8.0 | 17.7 | 0.00 | 0.00 | 0.00 | 60 | 1001.4 |
| 20260508000524 | 26 | 29 | 8.0 | 22.5 | 0.00 | 0.00 | 0.00 | 60 | 1001.4 |
| 20260508000043 | 26 | 2 | 9.7 | 22.5 | 0.00 | 0.00 | 0.00 | 60 | 1001.3 |
| 20260507235523 | 26 | 33 | 11.3 | 20.9 | 0.00 | 0.00 | 0.00 | 60 | 1001.3 |
| 20260507235024 | 26 | 8 | 9.7 | 20.9 | 0.00 | 0.00 | 0.00 | 60 | 1001.3 |
| 20260507234537 | 26 | 23 | 11.3 | 20.9 | 0.00 | 0.00 | 0.00 | 60 | 1001.2 |
| 20260507234053 | 26 | 25 | 11.3 | 20.9 | 0.00 | 0.00 | 0.00 | 61 | 1001.3 |
| 20260507233526 | 26 | 29 | 11.3 | 20.9 | 0.00 | 0.00 | 0.00 | 61 | 1001.3 |
| 20260507233036 | 26 | 25 | 11.3 | 17.7 | 0.00 | 0.00 | 0.00 | 61 | 1001.5 |
| 20260507232526 | 26 | 17 | 9.7 | 17.7 | 0.00 | 0.00 | 0.00 | 61 | 1001.6 |
| 20260507232026 | 26 | 28 | 9.7 | 17.7 | 0.00 | 0.00 | 0.00 | 61 | 1001.6 |
| 20260507231537 | 26 | 29 | 8.0 | 17.7 | 0.00 | 0.00 | 0.00 | 60 | 1001.8 |
| 20260507231027 | 26 | 18 | 6.4 | 16.1 | 0.00 | 0.00 | 0.00 | 60 | 1001.7 |
| 20260507230529 | 26 | 16 | 6.4 | 16.1 | 0.00 | 0.00 | 0.00 | 60 | 1001.7 |
| 20260507230042 | 26 | 20 | 4.8 | 14.5 | 0.00 | 0.00 | 0.00 | 60 | 1001.9 |
| 20260507225527 | 27 | 358 | 6.4 | 14.5 | 0.00 | 0.00 | 0.00 | 60 | 1001.8 |
| 20260507225028 | 27 | 356 | 8.0 | 17.7 | 0.00 | 0.00 | 0.00 | 59 | 1001.9 |
| 20260507224551 | 27 | 34 | 8.0 | 17.7 | 0.00 | 0.00 | 0.00 | 59 | 1001.9 |
| 20260507224028 | 27 | 360 | 8.0 | 17.7 | 0.00 | 0.00 | 0.00 | 59 | 1002.1 |
| 20260507223528 | 27 | 37 | 4.8 | 12.9 | 0.00 | 0.00 | 0.00 | 60 | 1002.1 |
| 20260507223041 | 27 | 15 | 4.8 | 11.3 | 0.00 | 0.00 | 0.00 | 60 | 1001.9 |
| 20260507222528 | 27 | 25 | 6.4 | 16.1 | 0.00 | 0.00 | 0.00 | 60 | 1001.9 |
| 20260507222028 | 27 | 5 | 6.4 | 16.1 | 0.00 | 0.00 | 0.00 | 60 | 1002.1 |
| 20260507221535 | 27 | 16 | 6.4 | 14.5 | 0.00 | 0.00 | 0.00 | 60 | 1002.1 |
| 20260507221027 | 27 | 357 | 4.8 | 16.1 | 0.00 | 0.00 | 0.00 | 60 | 1002.2 |
| 20260507220609 | 27 | 2 | 8.0 | 17.7 | 0.00 | 0.00 | 0.00 | 60 | 1002.3 |
| 20260507220042 | 27 | 357 | 6.4 | 17.7 | 0.00 | 0.00 | 0.00 | 60 | 1002.3 |
| 20260507215530 | 27 | 8 | 8.0 | 17.7 | 0.00 | 0.00 | 0.00 | 60 | 1002.1 |
| 20260507215024 | 27 | 351 | 8.0 | 17.7 | 0.00 | 0.00 | 0.00 | 60 | 1002.1 |
| 20260507214538 | 27 | 338 | 8.0 | 17.7 | 0.00 | 0.00 | 0.00 | 60 | 1002.1 |
| 20260507214026 | 27 | 353 | 6.4 | 19.3 | 0.00 | 0.00 | 0.00 | 60 | 1002.3 |
| 20260507213526 | 27 | 2 | 9.7 | 19.3 | 0.00 | 0.00 | 0.00 | 60 | 1002.1 |
| 20260507213036 | 27 | 353 | 8.0 | 17.7 | 0.00 | 0.00 | 0.00 | 60 | 1002.1 |
| 20260507212526 | 27 | 351 | 8.0 | 16.1 | 0.00 | 0.00 | 0.00 | 60 | 1002.3 |
| 20260507212026 | 27 | 333 | 6.4 | 14.5 | 0.00 | 0.00 | 0.00 | 60 | 1002.3 |
| 20260507211540 | 27 | 343 | 6.4 | 12.9 | 0.00 | 0.00 | 0.00 | 61 | 1002.3 |
| 20260507211024 | 27 | 356 | 6.4 | 12.9 | 0.00 | 0.00 | 0.00 | 61 | 1002.2 |
| 20260507210524 | 27 | 347 | 4.8 | 12.9 | 0.00 | 0.00 | 0.00 | 60 | 1002.3 |
| 20260507210036 | 27 | 356 | 4.8 | 12.9 | 0.00 | 0.00 | 0.00 | 60 | 1002.3 |
| 20260507205526 | 27 | 358 | 4.8 | 14.5 | 0.00 | 0.00 | 0.00 | 60 | 1002.3 |
| 20260507205030 | 27 | 358 | 4.8 | 17.7 | 0.00 | 0.00 | 0.00 | 59 | 1002.3 |
| 20260507204548 | 27 | 326 | 8.0 | 17.7 | 0.00 | 0.00 | 0.00 | 59 | 1002.3 |
| 20260507204031 | 27 | 335 | 4.8 | 17.7 | 0.00 | 0.00 | 0.00 | 60 | 1002.3 |
| 20260507203528 | 27 | 358 | 4.8 | 17.7 | 0.00 | 0.00 | 0.00 | 60 | 1002.2 |
| 20260507203042 | 27 | 347 | 8.0 | 19.3 | 0.00 | 0.00 | 0.00 | 59 | 1002.2 |
| 20260507202528 | 27 | 348 | 8.0 | 19.3 | 0.00 | 0.00 | 0.00 | 59 | 1002.3 |
| 20260507202028 | 27 | 2 | 6.4 | 17.7 | 0.00 | 0.00 | 0.00 | 59 | 1002.2 |
| 20260507201551 | 28 | 4 | 9.7 | 17.7 | 0.00 | 0.00 | 0.00 | 59 | 1002.1 |
| 20260507201028 | 28 | 357 | 9.7 | 17.7 | 0.00 | 0.00 | 0.00 | 59 | 1002.2 |
| 20260507200531 | 28 | 9 | 6.4 | 19.3 | 0.00 | 0.00 | 0.00 | 58 | 1002.2 |
| 20260507200048 | 28 | 346 | 4.8 | 19.3 | 0.00 | 0.00 | 0.00 | 59 | 1002.3 |
| 20260507195528 | 28 | 354 | 4.8 | 14.5 | 0.00 | 0.00 | 0.00 | 58 | 1002.3 |
| 20260507195028 | 28 | 355 | 4.8 | 16.1 | 0.00 | 0.00 | 0.00 | 59 | 1002.2 |
| 20260507194536 | 28 | 357 | 6.4 | 16.1 | 0.00 | 0.00 | 0.00 | 58 | 1002.3 |
| 20260507194211 | 28 | 345 | 4.8 | 16.1 | 0.00 | 0.00 | 0.00 | 58 | 1002.4 |
| 20260507193527 | 28 | 343 | 4.8 | 16.1 | 0.00 | 0.00 | 0.00 | 57 | 1002.5 |
| 20260507193036 | 28 | 337 | 6.4 | 16.1 | 0.00 | 0.00 | 0.00 | 56 | 1002.5 |
| 20260507192527 | 28 | 349 | 6.4 | 22.5 | 0.00 | 0.00 | 0.00 | 57 | 1002.7 |
| 20260507192028 | 28 | 330 | 6.4 | 22.5 | 0.00 | 0.00 | 0.00 | 56 | 1002.6 |
| 20260507191535 | 28 | 334 | 8.0 | 19.3 | 0.00 | 0.00 | 0.00 | 54 | 1002.6 |
| 20260507191028 | 28 | 343 | 9.7 | 19.3 | 0.00 | 0.00 | 0.00 | 54 | 1002.5 |
| 20260507190528 | 28 | 305 | 9.7 | 22.5 | 0.00 | 0.00 | 0.00 | 54 | 1002.4 |
| 20260507190043 | 29 | 333 | 8.0 | 22.5 | 0.00 | 0.00 | 0.00 | 54 | 1002.3 |
| 20260507185528 | 29 | 311 | 8.0 | 25.7 | 0.00 | 0.00 | 0.00 | 53 | 1002.2 |
| 20260507185031 | 29 | 321 | 11.3 | 25.7 | 0.00 | 0.00 | 0.00 | 52 | 1002.2 |
| 20260507184541 | 29 | 265 | 8.0 | 29.0 | 0.00 | 0.00 | 0.00 | 51 | 1002.2 |
| 20260507184027 | 29 | 343 | 11.3 | 29.0 | 0.00 | 0.00 | 0.00 | 52 | 1002.2 |
| 20260507183527 | 29 | 334 | 12.9 | 29.0 | 0.00 | 0.00 | 0.00 | 51 | 1002.3 |
| 20260507183039 | 29 | 295 | 14.5 | 29.0 | 0.00 | 0.00 | 0.00 | 50 | 1002.3 |
| 20260507182528 | 29 | 326 | 14.5 | 29.0 | 0.00 | 0.00 | 0.00 | 50 | 1002.3 |
| 20260507182028 | 29 | 307 | 12.9 | 29.0 | 0.00 | 0.00 | 0.00 | 51 | 1002.2 |
| 20260507181543 | 29 | 305 | 9.7 | 29.0 | 0.00 | 0.00 | 0.00 | 50 | 1002.3 |
| 20260507181031 | 29 | 285 | 11.3 | 24.1 | 0.00 | 0.00 | 0.00 | 51 | 1002.1 |
| 20260507180529 | 29 | 279 | 11.3 | 24.1 | 0.00 | 0.00 | 0.00 | 52 | 1002.1 |
| 20260507180044 | 29 | 303 | 9.7 | 29.0 | 0.00 | 0.00 | 0.00 | 52 | 1002.2 |
| 20260507175527 | 30 | 295 | 11.3 | 32.2 | 0.00 | 0.00 | 0.00 | 51 | 1002.2 |
| 20260507175030 | 30 | 290 | 12.9 | 32.2 | 0.00 | 0.00 | 0.00 | 51 | 1002.1 |
| 20260507174547 | 30 | 304 | 16.1 | 38.6 | 0.00 | 0.00 | 0.00 | 49 | 1002.2 |
| 20260507174028 | 30 | 340 | 20.9 | 38.6 | 0.00 | 0.00 | 0.00 | 49 | 1002.1 |
| 20260507173532 | 30 | 336 | 20.9 | 35.4 | 0.00 | 0.00 | 0.00 | 48 | 1002.2 |
| 20260507173043 | 30 | 304 | 14.5 | 32.2 | 0.00 | 0.00 | 0.00 | 52 | 1002.2 |
| 20260507172527 | 30 | 265 | 12.9 | 30.6 | 0.00 | 0.00 | 0.00 | 51 | 1002.4 |
| 20260507172027 | 30 | 323 | 9.7 | 24.1 | 0.00 | 0.00 | 0.00 | 52 | 1002.4 |
| 20260507171538 | 30 | 326 | 11.3 | 25.7 | 0.00 | 0.00 | 0.00 | 53 | 1002.5 |
| 20260507171028 | 30 | 321 | 12.9 | 25.7 | 0.00 | 0.00 | 0.00 | 52 | 1002.5 |
| 20260507170528 | 30 | 342 | 12.9 | 29.0 | 0.00 | 0.00 | 0.00 | 52 | 1002.4 |
| 20260507170043 | 30 | 300 | 12.9 | 29.0 | 0.00 | 0.00 | 0.00 | 53 | 1002.4 |
| 20260507165530 | 30 | 296 | 14.5 | 29.0 | 0.00 | 0.00 | 0.00 | 51 | 1002.4 |
| 20260507165029 | 30 | 345 | 12.9 | 27.4 | 0.00 | 0.00 | 0.00 | 54 | 1002.5 |
| 20260507164536 | 30 | 328 | 9.7 | 32.2 | 0.00 | 0.00 | 0.00 | 55 | 1002.5 |
| 20260507164028 | 30 | 308 | 14.5 | 32.2 | 0.00 | 0.00 | 0.00 | 56 | 1002.6 |
| 20260507163529 | 30 | 339 | 11.3 | 32.2 | 0.00 | 0.00 | 0.00 | 56 | 1002.8 |
| 20260507163034 | 30 | 326 | 12.9 | 27.4 | 0.00 | 0.00 | 0.00 | 57 | 1003.0 |
| 20260507162528 | 29 | 327 | 9.7 | 27.4 | 0.00 | 0.00 | 0.00 | 57 | 1003.0 |
| 20260507162028 | 29 | 330 | 12.9 | 29.0 | 0.00 | 0.00 | 0.00 | 57 | 1003.2 |
| 20260507161545 | 29 | 335 | 14.5 | 37.0 | 0.00 | 0.00 | 0.00 | 57 | 1003.2 |
| 20260507161030 | 29 | 325 | 12.9 | 38.6 | 0.00 | 0.00 | 0.00 | 56 | 1003.4 |
| 20260507160611 | 30 | 352 | 19.3 | 38.6 | 0.00 | 0.00 | 0.00 | 54 | 1003.4 |
| 20260507160036 | 30 | 328 | 17.7 | 35.4 | 0.00 | 0.00 | 0.00 | 53 | 1003.2 |
| 20260507155530 | 30 | 18 | 9.7 | 33.8 | 0.00 | 0.00 | 0.00 | 57 | 1003.8 |
| 20260507155028 | 30 | 312 | 16.1 | 37.0 | 0.00 | 0.00 | 0.00 | 55 | 1003.8 |
| 20260507154535 | 30 | 309 | 20.9 | 37.0 | 0.00 | 0.00 | 0.00 | 55 | 1003.6 |
| 20260507154027 | 29 | 317 | 12.9 | 38.6 | 0.00 | 0.00 | 0.00 | 58 | 1003.8 |
| 20260507153527 | 28 | 296 | 14.5 | 38.6 | 0.00 | 0.00 | 0.00 | 58 | 1003.9 |
| 20260507153043 | 29 | 6 | 17.7 | 35.4 | 0.00 | 0.00 | 0.00 | 58 | 1004.0 |
| 20260507152527 | 28 | 337 | 14.5 | 35.4 | 0.00 | 0.00 | 0.00 | 60 | 1004.2 |
| 20260507152027 | 28 | 300 | 11.3 | 29.0 | 0.00 | 0.00 | 0.00 | 62 | 1004.3 |
| 20260507151543 | 27 | 336 | 16.1 | 32.2 | 0.00 | 0.00 | 0.00 | 62 | 1004.2 |
| 20260507151027 | 28 | 324 | 14.5 | 33.8 | 0.00 | 0.00 | 0.00 | 61 | 1004.7 |
| 20260507150527 | 28 | 346 | 12.9 | 33.8 | 0.00 | 0.00 | 0.00 | 61 | 1004.9 |
| 20260507150041 | 28 | 4 | 14.5 | 33.8 | 0.00 | 0.00 | 0.00 | 61 | 1004.7 |
| 20260507145528 | 28 | 298 | 12.9 | 32.2 | 0.00 | 0.00 | 0.00 | 63 | 1005.0 |
| 20260507145028 | 28 | 318 | 17.7 | 37.0 | 0.00 | 0.00 | 0.00 | 62 | 1005.0 |
| 20260507144539 | 28 | 336 | 16.1 | 37.0 | 0.00 | 0.00 | 0.00 | 62 | 1005.1 |
| 20260507144028 | 28 | 358 | 19.3 | 37.0 | 0.00 | 0.00 | 0.00 | 62 | 1005.2 |
| 20260507143530 | 28 | 12 | 19.3 | 37.0 | 0.00 | 0.00 | 0.00 | 62 | 1005.1 |
| 20260507143045 | 28 | 324 | 16.1 | 40.2 | 0.00 | 0.00 | 0.00 | 61 | 1005.4 |
| 20260507142527 | 28 | 331 | 19.3 | 41.8 | 0.00 | 0.00 | 0.00 | 62 | 1005.5 |
| 20260507142027 | 28 | 355 | 19.3 | 41.8 | 0.00 | 0.00 | 0.00 | 63 | 1005.5 |
| 20260507141541 | 28 | 356 | 20.9 | 37.0 | 0.00 | 0.00 | 0.00 | 62 | 1005.8 |
| 20260507141027 | 28 | 346 | 20.9 | 37.0 | 0.00 | 0.00 | 0.00 | 63 | 1005.9 |
| 20260507140528 | 28 | 324 | 20.9 | 38.6 | 0.00 | 0.00 | 0.00 | 62 | 1006.2 |
| 20260507140045 | 28 | 328 | 19.3 | 38.6 | 0.00 | 0.00 | 0.00 | 63 | 1006.2 |
| 20260507135531 | 27 | 355 | 16.1 | 33.8 | 0.00 | 0.00 | 0.00 | 65 | 1006.4 |
| 20260507135028 | 27 | 347 | 14.5 | 37.0 | 0.00 | 0.00 | 0.00 | 65 | 1006.5 |
| 20260507134542 | 27 | 10 | 17.7 | 37.0 | 0.00 | 0.00 | 0.00 | 63 | 1006.8 |
| 20260507134211 | 27 | 335 | 16.1 | 35.4 | 0.00 | 0.00 | 0.00 | 64 | 1006.7 |
| 20260507133528 | 27 | 3 | 16.1 | 35.4 | 0.00 | 0.00 | 0.00 | 65 | 1007.2 |
| 20260507133045 | 27 | 349 | 17.7 | 37.0 | 0.00 | 0.00 | 0.00 | 65 | 1007.3 |
| 20260507132527 | 27 | 311 | 17.7 | 37.0 | 0.00 | 0.00 | 0.00 | 65 | 1007.5 |
| 20260507132027 | 27 | 345 | 14.5 | 38.6 | 0.00 | 0.00 | 0.00 | 67 | 1007.6 |
| 20260507131555 | 27 | 357 | 16.1 | 38.6 | 0.00 | 0.00 | 0.00 | 66 | 1007.7 |
| 20260507131028 | 26 | 339 | 14.5 | 27.4 | 0.00 | 0.00 | 0.00 | 68 | 1007.9 |
| 20260507130529 | 26 | 11 | 12.9 | 29.0 | 0.00 | 0.00 | 0.00 | 68 | 1008.0 |
| 20260507130055 | 26 | 332 | 14.5 | 29.0 | 0.00 | 0.00 | 0.00 | 68 | 1008.1 |
| 20260507125528 | 26 | 349 | 9.7 | 25.7 | 0.00 | 0.00 | 0.00 | 70 | 1008.1 |
| 20260507125028 | 26 | 337 | 11.3 | 32.2 | 0.00 | 0.00 | 0.00 | 69 | 1008.1 |
| 20260507124547 | 26 | 322 | 11.3 | 32.2 | 0.00 | 0.00 | 0.00 | 69 | 1008.3 |
| 20260507124028 | 26 | 314 | 11.3 | 24.1 | 0.00 | 0.00 | 0.00 | 69 | 1008.1 |
| 20260507123528 | 26 | 322 | 11.3 | 22.5 | 0.00 | 0.00 | 0.00 | 69 | 1008.2 |
| 20260507123035 | 26 | 353 | 8.0 | 22.5 | 0.00 | 0.00 | 0.00 | 71 | 1008.3 |
| 20260507122523 | 26 | 338 | 8.0 | 24.1 | 0.00 | 0.00 | 0.00 | 69 | 1008.2 |
| 20260507122024 | 26 | 320 | 11.3 | 24.1 | 0.00 | 0.00 | 0.00 | 69 | 1008.1 |
| 20260507121535 | 26 | 320 | 11.3 | 25.7 | 0.00 | 0.00 | 0.00 | 69 | 1008.2 |
| 20260507121027 | 26 | 306 | 9.7 | 25.7 | 0.00 | 0.00 | 0.00 | 69 | 1008.3 |
| 20260507120523 | 26 | 335 | 9.7 | 24.1 | 0.00 | 0.00 | 0.00 | 69 | 1008.3 |
| 20260507120041 | 26 | 348 | 8.0 | 24.1 | 0.00 | 0.00 | 0.00 | 69 | 1008.5 |
| 20260507115523 | 26 | 322 | 8.0 | 24.1 | 0.00 | 0.00 | 0.00 | 70 | 1008.4 |
| 20260507115023 | 25 | 321 | 8.0 | 24.1 | 0.00 | 0.00 | 0.00 | 70 | 1008.4 |
| 20260507114548 | 25 | 318 | 6.4 | 19.3 | 0.00 | 0.00 | 0.00 | 70 | 1008.5 |
| 20260507114026 | 25 | 333 | 8.0 | 19.3 | 0.00 | 0.00 | 0.00 | 71 | 1008.7 |
| 20260507113524 | 25 | 316 | 6.4 | 17.7 | 0.00 | 0.00 | 0.00 | 71 | 1008.6 |
| 20260507113039 | 25 | 342 | 6.4 | 17.7 | 0.00 | 0.00 | 0.00 | 72 | 1008.5 |
| 20260507112524 | 25 | 348 | 8.0 | 24.1 | 0.00 | 0.00 | 0.00 | 71 | 1008.3 |
| 20260507112024 | 25 | 347 | 8.0 | 24.1 | 0.00 | 0.00 | 0.00 | 71 | 1008.3 |
| 20260507111535 | 26 | 349 | 6.4 | 17.7 | 0.00 | 0.00 | 0.00 | 71 | 1008.4 |
| 20260507111023 | 26 | 338 | 6.4 | 16.1 | 0.00 | 0.00 | 0.00 | 71 | 1008.1 |
| 20260507110523 | 25 | 6 | 6.4 | 16.1 | 0.00 | 0.00 | 0.00 | 71 | 1008.1 |
| 20260507110044 | 25 | 22 | 6.4 | 14.5 | 0.00 | 0.00 | 0.00 | 72 | 1008.0 |
| 20260507105524 | 25 | 31 | 6.4 | 14.5 | 0.00 | 0.00 | 0.00 | 72 | 1007.9 |
| 20260507105023 | 25 | 6 | 6.4 | 17.7 | 0.00 | 0.00 | 0.00 | 72 | 1007.8 |
| 20260507104544 | 25 | 17 | 4.8 | 17.7 | 0.00 | 0.00 | 0.00 | 73 | 1007.9 |
| 20260507104027 | 25 | 3 | 4.8 | 19.3 | 0.00 | 0.00 | 0.00 | 74 | 1008.1 |
| 20260507103527 | 24 | 357 | 3.2 | 20.9 | 0.00 | 0.00 | 0.00 | 76 | 1008.1 |
| 20260507103043 | 23 | 12 | 6.4 | 20.9 | 0.00 | 0.00 | 0.00 | 76 | 1008.1 |
| 20260507102523 | 23 | 20 | 3.2 | 8.0 | 0.00 | 0.00 | 0.00 | 78 | 1008.1 |
| 20260507102027 | 23 | 16 | 1.6 | 4.8 | 0.00 | 0.00 | 0.00 | 78 | 1008.0 |
| 20260507101538 | 23 | 46 | 1.6 | 6.4 | 0.00 | 0.00 | 0.00 | 78 | 1008.0 |
| 20260507101023 | 23 | 46 | 1.6 | 6.4 | 0.00 | 0.00 | 0.00 | 78 | 1008.0 |
| 20260507100611 | 23 | 41 | 0.0 | 4.8 | 0.00 | 0.00 | 0.00 | 77 | 1008.0 |
| 20260507100040 | 23 | 41 | 0.0 | 4.8 | 0.00 | 0.00 | 0.00 | 76 | 1008.1 |
| 20260507095527 | 23 | 41 | 0.0 | 4.8 | 0.00 | 0.00 | 0.00 | 76 | 1008.1 |
| 20260507095024 | 23 | 0 | 1.6 | 6.4 | 0.00 | 0.00 | 0.00 | 76 | 1008.2 |
| 20260507094539 | 23 | 18 | 1.6 | 8.0 | 0.00 | 0.00 | 0.00 | 76 | 1008.2 |
| 20260507094024 | 23 | 25 | 3.2 | 8.0 | 0.00 | 0.00 | 0.00 | 76 | 1008.0 |
| 20260507093523 | 23 | 29 | 3.2 | 9.7 | 0.00 | 0.00 | 0.00 | 76 | 1008.0 |
| 20260507093035 | 23 | 26 | 3.2 | 9.7 | 0.00 | 0.00 | 0.00 | 75 | 1007.9 |
| 20260507092523 | 24 | 29 | 3.2 | 9.7 | 0.00 | 0.00 | 0.00 | 75 | 1007.9 |
| 20260507092024 | 24 | 35 | 4.8 | 9.7 | 0.00 | 0.00 | 0.00 | 75 | 1007.9 |
| 20260507091544 | 24 | 33 | 4.8 | 12.9 | 0.00 | 0.00 | 0.00 | 75 | 1008.0 |
| 20260507091024 | 24 | 32 | 4.8 | 12.9 | 0.00 | 0.00 | 0.00 | 75 | 1007.9 |
| 20260507090524 | 24 | 35 | 4.8 | 9.7 | 0.00 | 0.00 | 0.00 | 75 | 1007.8 |
| 20260507090040 | 24 | 33 | 4.8 | 12.9 | 0.00 | 0.00 | 0.00 | 75 | 1007.9 |
| 20260507085524 | 24 | 18 | 6.4 | 12.9 | 0.00 | 0.00 | 0.00 | 75 | 1007.8 |
| 20260507085024 | 24 | 52 | 6.4 | 12.9 | 0.00 | 0.00 | 0.00 | 75 | 1007.8 |
| 20260507084538 | 24 | 21 | 6.4 | 12.9 | 0.00 | 0.00 | 0.00 | 75 | 1007.8 |
| 20260507084023 | 24 | 39 | 6.4 | 16.1 | 0.00 | 0.00 | 0.00 | 74 | 1007.8 |
| 20260507083523 | 24 | 32 | 6.4 | 16.1 | 0.00 | 0.00 | 0.00 | 74 | 1007.8 |
| 20260507083036 | 24 | 23 | 8.0 | 14.5 | 0.00 | 0.00 | 0.00 | 74 | 1007.7 |
| 20260507082523 | 24 | 25 | 8.0 | 14.5 | 0.00 | 0.00 | 0.00 | 75 | 1007.9 |
| 20260507082023 | 24 | 31 | 8.0 | 14.5 | 0.00 | 0.00 | 0.00 | 75 | 1007.9 |
| 20260507081543 | 24 | 33 | 6.4 | 16.1 | 0.00 | 0.00 | 0.00 | 74 | 1007.8 |
| 20260507081023 | 24 | 20 | 6.4 | 16.1 | 0.00 | 0.00 | 0.00 | 74 | 1008.1 |
| 20260507080527 | 24 | 5 | 9.7 | 17.7 | 0.00 | 0.00 | 0.00 | 74 | 1008.3 |
| 20260507080040 | 24 | 360 | 6.4 | 17.7 | 0.00 | 0.00 | 0.00 | 74 | 1008.3 |
| 20260507075529 | 24 | 20 | 6.4 | 16.1 | 0.00 | 0.00 | 0.00 | 74 | 1008.3 |